Athens Eleftherios, Greece

4:42 PM EEST on July 28, 2016 (GMT +0300)
Agios Nikolaos, Spata-19004, Athens (GR) | | Change Station

Elev 446 ft 37.98 °N, 23.90 °E | Updated 6 seconds ago

Clear
Clear
91.5 °F
Feels Like 88 °F
N
5.4
Wind Variable Wind from NW
Gusts 8.3 mph

Today
High -- | Low -- °F
--% Chance of Precip.
Yesterday
High -- | Low -- °F
Precip. -- in
Pressure 29.86 in
Visibility -9999.0 miles
Clouds
Heat Index 88 °F
Dew Point 48 °F
Humidity 23%
Rainfall 0.00 in
Snow Depth Not available.
6:24 AM 8:36 PM
Waning Crescent, 32% visible
METAR LGAV 281320Z 05020G32KT CAVOK 32/10 Q1011 NOSIG
Pressure 29.86 in
Visibility -9999.0 miles
Clouds
Heat Index 88 °F
Dew Point 48 °F
Humidity 23%
Rainfall 0.00 in
Snow Depth Not available.
6:24 AM 8:36 PM
Waning Crescent, 32% visible
METAR LGAV 281320Z 05020G32KT CAVOK 32/10 Q1011 NOSIG

10-Day Weather Forecast

×

Almanac

Astronomy

Jul. 28, 2016 Rise Set
Actual Time
Civil Twilight
Nautical Twilight
Astronomical Twilight
Moon
Length of Visible Light
Length of Day
Tomorrow will be .
, % of the Moon is Illuminated

Today's Extremes

Country Highs Country Lows

Community

WunderPhotos

Upload Photos

1,928,112 photos uploaded!

WunderBlog® & News

Nearby

Air Quality

  Air Quality AQ Index Pollutant
Not available.

Snow Depth

Station Depth Elevation

Earthquake Activity

City Distance Mag. Time & Date
Minimum magnitude displayed is 2.5.

Coastal Water Temperatures

Place Temperature

Stations

Nearby Weather Stations

Station Location Temp. Windchill Dew Point Humidity Wind Precip. Elev Updated Type